sensor_id;sensor_type;location;lat;lon;timestamp;temperature;humidity
3298;DHT22;1661;53.572;10.174;2022-09-19T00:01:16;11.40;86.60
3298;DHT22;1661;53.572;10.174;2022-09-19T00:03:46;11.40;86.40
3298;DHT22;1661;53.572;10.174;2022-09-19T00:06:14;11.40;85.90
3298;DHT22;1661;53.572;10.174;2022-09-19T00:08:44;11.40;85.70
3298;DHT22;1661;53.572;10.174;2022-09-19T00:11:13;11.40;85.80
3298;DHT22;1661;53.572;10.174;2022-09-19T00:13:41;11.20;87.00
3298;DHT22;1661;53.572;10.174;2022-09-19T00:16:11;11.10;87.40
3298;DHT22;1661;53.572;10.174;2022-09-19T00:18:38;11.00;87.60
3298;DHT22;1661;53.572;10.174;2022-09-19T00:21:05;10.90;87.70
3298;DHT22;1661;53.572;10.174;2022-09-19T00:23:31;10.80;88.30
3298;DHT22;1661;53.572;10.174;2022-09-19T00:26:17;10.70;89.20
3298;DHT22;1661;53.572;10.174;2022-09-19T00:28:45;10.70;88.90
3298;DHT22;1661;53.572;10.174;2022-09-19T00:31:14;10.70;88.10
3298;DHT22;1661;53.572;10.174;2022-09-19T00:33:43;10.80;87.70
3298;DHT22;1661;53.572;10.174;2022-09-19T00:36:11;10.90;87.60
3298;DHT22;1661;53.572;10.174;2022-09-19T00:38:39;10.80;87.70
3298;DHT22;1661;53.572;10.174;2022-09-19T00:41:06;10.80;87.50
3298;DHT22;1661;53.572;10.174;2022-09-19T00:43:47;10.90;87.20
3298;DHT22;1661;53.572;10.174;2022-09-19T00:46:14;10.90;87.30
3298;DHT22;1661;53.572;10.174;2022-09-19T00:48:42;11.00;86.90
3298;DHT22;1661;53.572;10.174;2022-09-19T00:51:13;11.00;86.70
3298;DHT22;1661;53.572;10.174;2022-09-19T00:53:44;10.90;87.40
3298;DHT22;1661;53.572;10.174;2022-09-19T00:56:12;10.90;87.40
3298;DHT22;1661;53.572;10.174;2022-09-19T00:58:41;10.90;87.00
3298;DHT22;1661;53.572;10.174;2022-09-19T01:01:12;10.90;86.60
3298;DHT22;1661;53.572;10.174;2022-09-19T01:03:40;10.90;86.30
3298;DHT22;1661;53.572;10.174;2022-09-19T01:06:21;10.90;86.90
3298;DHT22;1661;53.572;10.174;2022-09-19T01:09:14;10.90;86.90
3298;DHT22;1661;53.572;10.174;2022-09-19T01:11:55;10.90;86.30
3298;DHT22;1661;53.572;10.174;2022-09-19T01:14:34;10.90;86.40
3298;DHT22;1661;53.572;10.174;2022-09-19T01:17:12;10.90;86.20
3298;DHT22;1661;53.572;10.174;2022-09-19T01:20:22;10.80;86.50
3298;DHT22;1661;53.572;10.174;2022-09-19T01:23:02;10.90;86.20
3298;DHT22;1661;53.572;10.174;2022-09-19T01:25:36;10.80;86.70
3298;DHT22;1661;53.572;10.174;2022-09-19T01:28:15;10.70;87.00
3298;DHT22;1661;53.572;10.174;2022-09-19T01:30:52;10.70;87.00
3298;DHT22;1661;53.572;10.174;2022-09-19T01:33:42;10.70;87.30
3298;DHT22;1661;53.572;10.174;2022-09-19T01:36:13;10.70;87.10
3298;DHT22;1661;53.572;10.174;2022-09-19T01:38:42;10.70;87.40
3298;DHT22;1661;53.572;10.174;2022-09-19T01:41:11;10.70;87.50
3298;DHT22;1661;53.572;10.174;2022-09-19T01:43:39;10.60;87.70
3298;DHT22;1661;53.572;10.174;2022-09-19T01:46:13;10.60;87.50
3298;DHT22;1661;53.572;10.174;2022-09-19T01:48:48;10.60;88.10
3298;DHT22;1661;53.572;10.174;2022-09-19T01:51:25;10.60;87.90
3298;DHT22;1661;53.572;10.174;2022-09-19T01:54:06;10.60;87.60
3298;DHT22;1661;53.572;10.174;2022-09-19T01:56:41;10.50;88.00
3298;DHT22;1661;53.572;10.174;2022-09-19T01:59:20;10.60;87.60
3298;DHT22;1661;53.572;10.174;2022-09-19T02:01:54;10.60;87.50
3298;DHT22;1661;53.572;10.174;2022-09-19T02:04:24;10.60;87.70
3298;DHT22;1661;53.572;10.174;2022-09-19T02:06:59;10.60;87.00
3298;DHT22;1661;53.572;10.174;2022-09-19T02:09:30;10.60;86.90
3298;DHT22;1661;53.572;10.174;2022-09-19T02:12:01;10.50;87.80
3298;DHT22;1661;53.572;10.174;2022-09-19T02:14:32;10.40;88.30
3298;DHT22;1661;53.572;10.174;2022-09-19T02:17:03;10.50;88.10
3298;DHT22;1661;53.572;10.174;2022-09-19T02:19:35;10.50;87.60
3298;DHT22;1661;53.572;10.174;2022-09-19T02:22:05;10.50;86.90
3298;DHT22;1661;53.572;10.174;2022-09-19T02:24:36;10.60;86.70
3298;DHT22;1661;53.572;10.174;2022-09-19T02:27:07;10.60;86.20
3298;DHT22;1661;53.572;10.174;2022-09-19T02:29:40;10.60;86.10
3298;DHT22;1661;53.572;10.174;2022-09-19T02:32:09;10.70;85.90
3298;DHT22;1661;53.572;10.174;2022-09-19T02:34:37;10.70;85.90
3298;DHT22;1661;53.572;10.174;2022-09-19T02:37:07;10.70;85.50
3298;DHT22;1661;53.572;10.174;2022-09-19T02:39:40;10.70;85.20
3298;DHT22;1661;53.572;10.174;2022-09-19T02:42:18;10.70;85.40
3298;DHT22;1661;53.572;10.174;2022-09-19T02:45:00;10.70;85.50
3298;DHT22;1661;53.572;10.174;2022-09-19T02:47:31;10.70;86.00
3298;DHT22;1661;53.572;10.174;2022-09-19T02:50:03;10.70;85.70
3298;DHT22;1661;53.572;10.174;2022-09-19T02:52:34;10.70;85.60
3298;DHT22;1661;53.572;10.174;2022-09-19T02:55:05;10.70;85.60
3298;DHT22;1661;53.572;10.174;2022-09-19T02:57:34;10.70;85.50
3298;DHT22;1661;53.572;10.174;2022-09-19T03:00:05;10.70;85.40
3298;DHT22;1661;53.572;10.174;2022-09-19T03:02:34;10.70;85.40
3298;DHT22;1661;53.572;10.174;2022-09-19T03:05:07;10.70;85.50
3298;DHT22;1661;53.572;10.174;2022-09-19T03:07:39;10.60;85.60
3298;DHT22;1661;53.572;10.174;2022-09-19T03:10:09;10.60;85.40
3298;DHT22;1661;53.572;10.174;2022-09-19T03:12:41;10.60;85.00
3298;DHT22;1661;53.572;10.174;2022-09-19T03:15:11;10.60;85.50
3298;DHT22;1661;53.572;10.174;2022-09-19T03:17:41;10.60;85.80
3298;DHT22;1661;53.572;10.174;2022-09-19T03:20:10;10.60;85.60
3298;DHT22;1661;53.572;10.174;2022-09-19T03:22:38;10.60;85.50
3298;DHT22;1661;53.572;10.174;2022-09-19T03:25:06;10.60;85.20
3298;DHT22;1661;53.572;10.174;2022-09-19T03:27:33;10.60;85.20
3298;DHT22;1661;53.572;10.174;2022-09-19T03:30:04;10.60;84.80
3298;DHT22;1661;53.572;10.174;2022-09-19T03:32:32;10.60;84.70
3298;DHT22;1661;53.572;10.174;2022-09-19T03:35:00;10.60;84.40
3298;DHT22;1661;53.572;10.174;2022-09-19T03:37:28;10.60;84.30
3298;DHT22;1661;53.572;10.174;2022-09-19T03:39:55;10.50;84.60
3298;DHT22;1661;53.572;10.174;2022-09-19T03:42:22;10.50;84.90
3298;DHT22;1661;53.572;10.174;2022-09-19T03:44:48;10.50;85.40
3298;DHT22;1661;53.572;10.174;2022-09-19T03:47:15;10.50;85.20
3298;DHT22;1661;53.572;10.174;2022-09-19T03:49:43;10.40;85.00
3298;DHT22;1661;53.572;10.174;2022-09-19T03:52:10;10.50;85.00
3298;DHT22;1661;53.572;10.174;2022-09-19T03:54:37;10.50;84.90
3298;DHT22;1661;53.572;10.174;2022-09-19T03:57:09;10.40;85.10
3298;DHT22;1661;53.572;10.174;2022-09-19T03:59:38;10.40;85.20
3298;DHT22;1661;53.572;10.174;2022-09-19T04:02:06;10.40;85.00
3298;DHT22;1661;53.572;10.174;2022-09-19T04:04:32;10.40;85.00
3298;DHT22;1661;53.572;10.174;2022-09-19T04:07:01;10.40;85.00
3298;DHT22;1661;53.572;10.174;2022-09-19T04:09:28;10.40;84.70
3298;DHT22;1661;53.572;10.174;2022-09-19T04:11:55;10.40;84.70
3298;DHT22;1661;53.572;10.174;2022-09-19T04:14:22;10.40;84.60
3298;DHT22;1661;53.572;10.174;2022-09-19T04:16:49;10.40;84.30
3298;DHT22;1661;53.572;10.174;2022-09-19T04:19:16;10.40;84.20
3298;DHT22;1661;53.572;10.174;2022-09-19T04:21:42;10.40;84.00
3298;DHT22;1661;53.572;10.174;2022-09-19T04:24:11;10.40;84.20
3298;DHT22;1661;53.572;10.174;2022-09-19T04:26:39;10.40;84.40
3298;DHT22;1661;53.572;10.174;2022-09-19T04:29:09;10.40;84.30
3298;DHT22;1661;53.572;10.174;2022-09-19T04:31:36;10.50;84.20
3298;DHT22;1661;53.572;10.174;2022-09-19T04:34:05;10.50;84.30
3298;DHT22;1661;53.572;10.174;2022-09-19T04:36:32;10.50;84.20
3298;DHT22;1661;53.572;10.174;2022-09-19T04:38:59;10.50;84.70
3298;DHT22;1661;53.572;10.174;2022-09-19T04:41:30;10.50;84.70
3298;DHT22;1661;53.572;10.174;2022-09-19T04:43:57;10.60;84.80
3298;DHT22;1661;53.572;10.174;2022-09-19T04:46:23;10.60;85.10
3298;DHT22;1661;53.572;10.174;2022-09-19T04:48:50;10.60;85.10
3298;DHT22;1661;53.572;10.174;2022-09-19T04:51:18;10.60;85.50
3298;DHT22;1661;53.572;10.174;2022-09-19T04:53:44;10.60;85.90
3298;DHT22;1661;53.572;10.174;2022-09-19T04:56:11;10.60;86.20
3298;DHT22;1661;53.572;10.174;2022-09-19T04:58:39;10.60;85.90
3298;DHT22;1661;53.572;10.174;2022-09-19T05:01:06;10.70;85.90
3298;DHT22;1661;53.572;10.174;2022-09-19T05:03:33;10.70;85.90
3298;DHT22;1661;53.572;10.174;2022-09-19T05:06:01;10.70;86.40
3298;DHT22;1661;53.572;10.174;2022-09-19T05:08:30;10.70;86.50
3298;DHT22;1661;53.572;10.174;2022-09-19T05:11:00;10.70;86.80
3298;DHT22;1661;53.572;10.174;2022-09-19T05:13:28;10.70;86.70
3298;DHT22;1661;53.572;10.174;2022-09-19T05:15:57;10.80;86.80
3298;DHT22;1661;53.572;10.174;2022-09-19T05:18:25;10.80;86.50
3298;DHT22;1661;53.572;10.174;2022-09-19T05:20:53;10.80;86.90
3298;DHT22;1661;53.572;10.174;2022-09-19T05:23:20;10.90;86.90
3298;DHT22;1661;53.572;10.174;2022-09-19T05:25:48;10.90;86.40
3298;DHT22;1661;53.572;10.174;2022-09-19T05:28:19;10.90;86.40
3298;DHT22;1661;53.572;10.174;2022-09-19T05:30:48;11.00;86.80
3298;DHT22;1661;53.572;10.174;2022-09-19T05:33:22;11.00;87.70
3298;DHT22;1661;53.572;10.174;2022-09-19T05:35:52;11.00;87.80
3298;DHT22;1661;53.572;10.174;2022-09-19T05:38:19;11.00;87.20
3298;DHT22;1661;53.572;10.174;2022-09-19T05:40:45;11.10;86.50
3298;DHT22;1661;53.572;10.174;2022-09-19T05:43:12;11.10;86.50
3298;DHT22;1661;53.572;10.174;2022-09-19T05:45:39;11.20;87.20
3298;DHT22;1661;53.572;10.174;2022-09-19T05:48:06;11.20;87.10
3298;DHT22;1661;53.572;10.174;2022-09-19T05:50:34;11.20;87.00
3298;DHT22;1661;53.572;10.174;2022-09-19T05:53:01;11.30;87.00
3298;DHT22;1661;53.572;10.174;2022-09-19T05:55:45;11.30;87.20
3298;DHT22;1661;53.572;10.174;2022-09-19T05:58:14;11.40;87.10
3298;DHT22;1661;53.572;10.174;2022-09-19T06:00:43;11.40;87.00
3298;DHT22;1661;53.572;10.174;2022-09-19T06:03:13;11.50;87.30
3298;DHT22;1661;53.572;10.174;2022-09-19T06:05:44;11.50;87.20
3298;DHT22;1661;53.572;10.174;2022-09-19T06:08:13;11.60;87.40
3298;DHT22;1661;53.572;10.174;2022-09-19T06:10:41;11.60;87.80
3298;DHT22;1661;53.572;10.174;2022-09-19T06:13:11;11.70;88.20
3298;DHT22;1661;53.572;10.174;2022-09-19T06:15:38;11.70;88.60
3298;DHT22;1661;53.572;10.174;2022-09-19T06:18:04;11.80;88.60
3298;DHT22;1661;53.572;10.174;2022-09-19T06:20:31;11.80;89.00
3298;DHT22;1661;53.572;10.174;2022-09-19T06:23:01;11.80;89.30
3298;DHT22;1661;53.572;10.174;2022-09-19T06:25:28;11.90;89.50
3298;DHT22;1661;53.572;10.174;2022-09-19T06:27:56;12.00;89.60
3298;DHT22;1661;53.572;10.174;2022-09-19T06:30:24;12.00;89.70
3298;DHT22;1661;53.572;10.174;2022-09-19T06:32:50;12.10;89.60
3298;DHT22;1661;53.572;10.174;2022-09-19T06:35:18;12.10;89.70
3298;DHT22;1661;53.572;10.174;2022-09-19T06:37:45;12.10;89.50
3298;DHT22;1661;53.572;10.174;2022-09-19T06:40:15;12.20;89.60
3298;DHT22;1661;53.572;10.174;2022-09-19T06:42:43;12.30;89.90
3298;DHT22;1661;53.572;10.174;2022-09-19T06:45:11;12.50;90.30
3298;DHT22;1661;53.572;10.174;2022-09-19T06:47:38;12.60;90.50
3298;DHT22;1661;53.572;10.174;2022-09-19T06:50:05;12.70;90.40
3298;DHT22;1661;53.572;10.174;2022-09-19T06:52:32;12.90;90.30
3298;DHT22;1661;53.572;10.174;2022-09-19T06:55:02;13.00;89.80
3298;DHT22;1661;53.572;10.174;2022-09-19T06:57:30;13.00;89.60
3298;DHT22;1661;53.572;10.174;2022-09-19T06:59:56;13.10;89.40
3298;DHT22;1661;53.572;10.174;2022-09-19T07:02:23;13.20;89.60
3298;DHT22;1661;53.572;10.174;2022-09-19T07:04:50;13.30;89.50
3298;DHT22;1661;53.572;10.174;2022-09-19T07:07:16;13.50;89.20
3298;DHT22;1661;53.572;10.174;2022-09-19T07:09:43;13.60;88.90
3298;DHT22;1661;53.572;10.174;2022-09-19T07:12:10;13.70;88.70
3298;DHT22;1661;53.572;10.174;2022-09-19T07:14:38;13.80;88.50
3298;DHT22;1661;53.572;10.174;2022-09-19T07:17:06;14.00;87.90
3298;DHT22;1661;53.572;10.174;2022-09-19T07:19:34;14.00;87.60
3298;DHT22;1661;53.572;10.174;2022-09-19T07:22:00;14.10;87.40
3298;DHT22;1661;53.572;10.174;2022-09-19T07:24:27;14.30;87.60
3298;DHT22;1661;53.572;10.174;2022-09-19T07:26:54;14.50;87.50
3298;DHT22;1661;53.572;10.174;2022-09-19T07:29:20;14.60;87.00
3298;DHT22;1661;53.572;10.174;2022-09-19T07:31:48;14.70;86.50
3298;DHT22;1661;53.572;10.174;2022-09-19T07:34:15;14.80;86.40
3298;DHT22;1661;53.572;10.174;2022-09-19T07:36:42;14.90;86.10
3298;DHT22;1661;53.572;10.174;2022-09-19T07:39:08;15.10;85.60
3298;DHT22;1661;53.572;10.174;2022-09-19T07:41:36;15.20;85.50
3298;DHT22;1661;53.572;10.174;2022-09-19T07:44:03;15.20;84.50
3298;DHT22;1661;53.572;10.174;2022-09-19T07:46:29;15.30;84.60
3298;DHT22;1661;53.572;10.174;2022-09-19T07:48:57;15.40;84.00
3298;DHT22;1661;53.572;10.174;2022-09-19T07:51:24;15.50;84.70
3298;DHT22;1661;53.572;10.174;2022-09-19T07:53:55;15.60;84.50
3298;DHT22;1661;53.572;10.174;2022-09-19T07:56:23;15.80;84.20
3298;DHT22;1661;53.572;10.174;2022-09-19T07:58:50;15.80;83.50
3298;DHT22;1661;53.572;10.174;2022-09-19T08:01:16;15.90;83.40
3298;DHT22;1661;53.572;10.174;2022-09-19T08:03:43;16.00;83.50
3298;DHT22;1661;53.572;10.174;2022-09-19T08:06:13;16.20;83.40
3298;DHT22;1661;53.572;10.174;2022-09-19T08:08:39;16.30;82.80
3298;DHT22;1661;53.572;10.174;2022-09-19T08:11:06;16.50;82.90
3298;DHT22;1661;53.572;10.174;2022-09-19T08:13:33;16.70;82.40
3298;DHT22;1661;53.572;10.174;2022-09-19T08:16:00;16.90;81.40
3298;DHT22;1661;53.572;10.174;2022-09-19T08:18:27;17.00;80.50
3298;DHT22;1661;53.572;10.174;2022-09-19T08:20:55;17.10;79.80
3298;DHT22;1661;53.572;10.174;2022-09-19T08:23:23;17.30;79.40
3298;DHT22;1661;53.572;10.174;2022-09-19T08:25:50;17.40;78.70
3298;DHT22;1661;53.572;10.174;2022-09-19T08:28:19;17.50;77.30
3298;DHT22;1661;53.572;10.174;2022-09-19T08:30:46;17.60;76.70
3298;DHT22;1661;53.572;10.174;2022-09-19T08:33:15;17.80;77.00
3298;DHT22;1661;53.572;10.174;2022-09-19T08:35:42;17.90;75.30
3298;DHT22;1661;53.572;10.174;2022-09-19T08:38:10;17.80;74.40
3298;DHT22;1661;53.572;10.174;2022-09-19T08:40:54;17.70;75.20
3298;DHT22;1661;53.572;10.174;2022-09-19T08:43:26;17.90;74.20
3298;DHT22;1661;53.572;10.174;2022-09-19T08:46:09;17.90;73.60
3298;DHT22;1661;53.572;10.174;2022-09-19T08:48:48;17.90;74.70
3298;DHT22;1661;53.572;10.174;2022-09-19T08:51:20;18.00;75.30
3298;DHT22;1661;53.572;10.174;2022-09-19T08:53:52;18.30;74.30
3298;DHT22;1661;53.572;10.174;2022-09-19T08:56:21;18.50;73.20
3298;DHT22;1661;53.572;10.174;2022-09-19T08:58:51;18.60;72.00
3298;DHT22;1661;53.572;10.174;2022-09-19T09:01:21;18.60;71.20
3298;DHT22;1661;53.572;10.174;2022-09-19T09:03:57;18.70;71.10
3298;DHT22;1661;53.572;10.174;2022-09-19T09:06:37;18.80;71.90
3298;DHT22;1661;53.572;10.174;2022-09-19T09:09:12;18.80;70.30
3298;DHT22;1661;53.572;10.174;2022-09-19T09:11:48;18.80;71.10
3298;DHT22;1661;53.572;10.174;2022-09-19T09:14:23;18.80;70.20
3298;DHT22;1661;53.572;10.174;2022-09-19T09:17:01;18.90;70.50
3298;DHT22;1661;53.572;10.174;2022-09-19T09:19:45;19.00;71.00
3298;DHT22;1661;53.572;10.174;2022-09-19T09:22:20;19.10;70.10
3298;DHT22;1661;53.572;10.174;2022-09-19T09:24:56;19.10;70.40
3298;DHT22;1661;53.572;10.174;2022-09-19T09:27:32;19.30;70.00
3298;DHT22;1661;53.572;10.174;2022-09-19T09:30:04;19.10;68.00
3298;DHT22;1661;53.572;10.174;2022-09-19T09:32:38;19.10;68.70
3298;DHT22;1661;53.572;10.174;2022-09-19T09:35:14;18.80;67.60
3298;DHT22;1661;53.572;10.174;2022-09-19T09:37:46;18.70;67.60
3298;DHT22;1661;53.572;10.174;2022-09-19T09:40:26;18.40;69.30
3298;DHT22;1661;53.572;10.174;2022-09-19T09:43:14;18.30;69.20
3298;DHT22;1661;53.572;10.174;2022-09-19T09:45:47;18.20;70.70
3298;DHT22;1661;53.572;10.174;2022-09-19T09:48:17;18.40;70.90
3298;DHT22;1661;53.572;10.174;2022-09-19T09:51:01;18.70;70.30
3298;DHT22;1661;53.572;10.174;2022-09-19T09:53:39;18.90;69.70
3298;DHT22;1661;53.572;10.174;2022-09-19T09:56:14;19.10;68.60
3298;DHT22;1661;53.572;10.174;2022-09-19T09:58:57;19.10;67.20
3298;DHT22;1661;53.572;10.174;2022-09-19T10:01:32;19.20;68.90
3298;DHT22;1661;53.572;10.174;2022-09-19T10:04:26;19.20;67.60
3298;DHT22;1661;53.572;10.174;2022-09-19T10:07:03;19.30;66.80
3298;DHT22;1661;53.572;10.174;2022-09-19T10:09:38;19.30;67.40
3298;DHT22;1661;53.572;10.174;2022-09-19T10:12:14;19.40;67.00
3298;DHT22;1661;53.572;10.174;2022-09-19T10:14:48;19.60;66.80
3298;DHT22;1661;53.572;10.174;2022-09-19T10:17:17;19.40;66.30
3298;DHT22;1661;53.572;10.174;2022-09-19T10:19:46;19.10;66.90
3298;DHT22;1661;53.572;10.174;2022-09-19T10:22:14;19.20;67.30
3298;DHT22;1661;53.572;10.174;2022-09-19T10:24:45;19.40;67.10
3298;DHT22;1661;53.572;10.174;2022-09-19T10:27:15;19.60;66.00
3298;DHT22;1661;53.572;10.174;2022-09-19T10:29:52;19.70;65.50
3298;DHT22;1661;53.572;10.174;2022-09-19T10:32:22;19.90;65.60
3298;DHT22;1661;53.572;10.174;2022-09-19T10:34:50;20.10;65.90
3298;DHT22;1661;53.572;10.174;2022-09-19T10:37:19;20.20;65.60
3298;DHT22;1661;53.572;10.174;2022-09-19T10:39:47;20.40;66.10
3298;DHT22;1661;53.572;10.174;2022-09-19T10:42:32;20.60;64.10
3298;DHT22;1661;53.572;10.174;2022-09-19T10:45:17;20.70;63.50
3298;DHT22;1661;53.572;10.174;2022-09-19T10:47:45;21.00;63.50
3298;DHT22;1661;53.572;10.174;2022-09-19T10:50:15;20.80;59.80
3298;DHT22;1661;53.572;10.174;2022-09-19T10:52:43;20.80;61.50
3298;DHT22;1661;53.572;10.174;2022-09-19T10:55:15;21.10;60.40
3298;DHT22;1661;53.572;10.174;2022-09-19T10:57:49;21.20;59.90
3298;DHT22;1661;53.572;10.174;2022-09-19T11:00:33;21.60;60.10
3298;DHT22;1661;53.572;10.174;2022-09-19T11:03:18;21.90;57.00
3298;DHT22;1661;53.572;10.174;2022-09-19T11:06:03;22.10;56.20
3298;DHT22;1661;53.572;10.174;2022-09-19T11:08:37;21.80;55.60
3298;DHT22;1661;53.572;10.174;2022-09-19T11:11:26;21.70;57.40
3298;DHT22;1661;53.572;10.174;2022-09-19T11:14:26;22.00;58.40
3298;DHT22;1661;53.572;10.174;2022-09-19T11:17:22;21.90;56.80
3298;DHT22;1661;53.572;10.174;2022-09-19T11:20:18;21.90;57.30
3298;DHT22;1661;53.572;10.174;2022-09-19T11:23:10;21.90;58.70
3298;DHT22;1661;53.572;10.174;2022-09-19T11:25:48;21.80;58.20
3298;DHT22;1661;53.572;10.174;2022-09-19T11:28:25;22.10;57.80
3298;DHT22;1661;53.572;10.174;2022-09-19T11:31:00;22.30;57.40
3298;DHT22;1661;53.572;10.174;2022-09-19T11:33:44;22.60;57.20
3298;DHT22;1661;53.572;10.174;2022-09-19T11:36:23;23.00;56.80
3298;DHT22;1661;53.572;10.174;2022-09-19T11:38:55;23.10;56.60
3298;DHT22;1661;53.572;10.174;2022-09-19T11:41:37;23.20;53.40
3298;DHT22;1661;53.572;10.174;2022-09-19T11:44:28;23.00;54.30
3298;DHT22;1661;53.572;10.174;2022-09-19T11:47:05;22.80;56.30
3298;DHT22;1661;53.572;10.174;2022-09-19T11:50:07;22.50;54.20
3298;DHT22;1661;53.572;10.174;2022-09-19T11:52:46;22.30;57.90
3298;DHT22;1661;53.572;10.174;2022-09-19T11:55:23;22.30;56.00
3298;DHT22;1661;53.572;10.174;2022-09-19T11:58:02;22.30;57.10
3298;DHT22;1661;53.572;10.174;2022-09-19T12:00:35;22.50;55.60
3298;DHT22;1661;53.572;10.174;2022-09-19T12:03:20;22.70;55.10
3298;DHT22;1661;53.572;10.174;2022-09-19T12:05:59;23.00;52.70
3298;DHT22;1661;53.572;10.174;2022-09-19T12:08:34;23.30;52.50
3298;DHT22;1661;53.572;10.174;2022-09-19T12:11:13;23.40;52.70
3298;DHT22;1661;53.572;10.174;2022-09-19T12:13:44;23.30;54.00
3298;DHT22;1661;53.572;10.174;2022-09-19T12:16:17;23.00;50.90
3298;DHT22;1661;53.572;10.174;2022-09-19T12:18:47;22.70;56.90
3298;DHT22;1661;53.572;10.174;2022-09-19T12:21:20;22.50;53.80
3298;DHT22;1661;53.572;10.174;2022-09-19T12:23:52;22.10;54.20
3298;DHT22;1661;53.572;10.174;2022-09-19T12:26:46;21.70;54.30
3298;DHT22;1661;53.572;10.174;2022-09-19T12:29:21;21.50;55.50
3298;DHT22;1661;53.572;10.174;2022-09-19T12:31:54;20.80;57.30
3298;DHT22;1661;53.572;10.174;2022-09-19T12:34:28;19.70;63.60
3298;DHT22;1661;53.572;10.174;2022-09-19T12:37:08;19.30;68.60
3298;DHT22;1661;53.572;10.174;2022-09-19T12:39:41;19.10;68.10
3298;DHT22;1661;53.572;10.174;2022-09-19T12:42:16;18.80;65.70
3298;DHT22;1661;53.572;10.174;2022-09-19T12:44:54;18.60;69.30
3298;DHT22;1661;53.572;10.174;2022-09-19T12:47:36;18.10;67.10
3298;DHT22;1661;53.572;10.174;2022-09-19T12:50:16;17.70;70.40
3298;DHT22;1661;53.572;10.174;2022-09-19T12:52:56;17.30;72.70
3298;DHT22;1661;53.572;10.174;2022-09-19T12:55:29;17.20;74.60
3298;DHT22;1661;53.572;10.174;2022-09-19T12:58:06;16.90;72.60
3298;DHT22;1661;53.572;10.174;2022-09-19T13:00:37;16.90;72.70
3298;DHT22;1661;53.572;10.174;2022-09-19T13:03:14;16.90;76.10
3298;DHT22;1661;53.572;10.174;2022-09-19T13:05:46;17.00;77.10
3298;DHT22;1661;53.572;10.174;2022-09-19T13:08:17;17.00;76.80
3298;DHT22;1661;53.572;10.174;2022-09-19T13:10:49;17.00;75.20
3298;DHT22;1661;53.572;10.174;2022-09-19T13:13:22;17.00;76.50
3298;DHT22;1661;53.572;10.174;2022-09-19T13:15:52;17.10;76.00
3298;DHT22;1661;53.572;10.174;2022-09-19T13:18:22;17.10;75.10
3298;DHT22;1661;53.572;10.174;2022-09-19T13:21:14;17.00;75.10
3298;DHT22;1661;53.572;10.174;2022-09-19T13:24:01;17.10;75.60
3298;DHT22;1661;53.572;10.174;2022-09-19T13:26:31;17.10;75.60
3298;DHT22;1661;53.572;10.174;2022-09-19T13:29:03;17.20;76.40
3298;DHT22;1661;53.572;10.174;2022-09-19T13:31:33;17.20;75.20
3298;DHT22;1661;53.572;10.174;2022-09-19T13:34:38;17.20;75.40
3298;DHT22;1661;53.572;10.174;2022-09-19T13:40:28;17.20;75.70
3298;DHT22;1661;53.572;10.174;2022-09-19T13:43:00;17.20;75.90
3298;DHT22;1661;53.572;10.174;2022-09-19T13:45:36;17.20;75.50
3298;DHT22;1661;53.572;10.174;2022-09-19T13:48:10;17.20;75.20
3298;DHT22;1661;53.572;10.174;2022-09-19T13:50:44;17.00;75.70
3298;DHT22;1661;53.572;10.174;2022-09-19T13:53:28;16.90;75.40
3298;DHT22;1661;53.572;10.174;2022-09-19T13:56:01;16.90;77.30
3298;DHT22;1661;53.572;10.174;2022-09-19T13:58:31;16.70;76.40
3298;DHT22;1661;53.572;10.174;2022-09-19T14:01:08;16.70;77.30
3298;DHT22;1661;53.572;10.174;2022-09-19T14:03:41;16.80;77.60
3298;DHT22;1661;53.572;10.174;2022-09-19T14:06:18;16.80;76.30
3298;DHT22;1661;53.572;10.174;2022-09-19T14:11:31;16.90;76.60
3298;DHT22;1661;53.572;10.174;2022-09-19T14:13:57;17.00;76.30
3298;DHT22;1661;53.572;10.174;2022-09-19T14:16:30;17.10;77.90
3298;DHT22;1661;53.572;10.174;2022-09-19T14:19:01;17.20;77.80
3298;DHT22;1661;53.572;10.174;2022-09-19T14:21:52;17.40;79.10
3298;DHT22;1661;53.572;10.174;2022-09-19T14:24:46;17.80;78.60
3298;DHT22;1661;53.572;10.174;2022-09-19T14:27:47;18.10;76.50
3298;DHT22;1661;53.572;10.174;2022-09-19T14:30:25;18.50;75.40
3298;DHT22;1661;53.572;10.174;2022-09-19T14:33:19;18.80;72.50
3298;DHT22;1661;53.572;10.174;2022-09-19T14:35:50;19.10;70.30
3298;DHT22;1661;53.572;10.174;2022-09-19T14:38:37;19.30;70.00
3298;DHT22;1661;53.572;10.174;2022-09-19T14:41:13;19.50;69.40
3298;DHT22;1661;53.572;10.174;2022-09-19T14:46:47;19.90;70.30
3298;DHT22;1661;53.572;10.174;2022-09-19T14:49:22;20.10;67.60
3298;DHT22;1661;53.572;10.174;2022-09-19T14:51:57;20.20;66.30
3298;DHT22;1661;53.572;10.174;2022-09-19T14:54:31;20.40;66.10
3298;DHT22;1661;53.572;10.174;2022-09-19T14:57:02;20.60;66.50
3298;DHT22;1661;53.572;10.174;2022-09-19T14:59:31;20.70;65.10
3298;DHT22;1661;53.572;10.174;2022-09-19T15:02:13;20.80;66.90
3298;DHT22;1661;53.572;10.174;2022-09-19T15:04:44;20.90;66.60
3298;DHT22;1661;53.572;10.174;2022-09-19T15:07:11;21.10;65.40
3298;DHT22;1661;53.572;10.174;2022-09-19T15:09:39;21.10;64.40
3298;DHT22;1661;53.572;10.174;2022-09-19T15:12:14;21.10;64.50
3298;DHT22;1661;53.572;10.174;2022-09-19T15:14:43;21.10;63.40
3298;DHT22;1661;53.572;10.174;2022-09-19T15:17:14;21.10;63.60
3298;DHT22;1661;53.572;10.174;2022-09-19T15:19:43;21.10;62.70
3298;DHT22;1661;53.572;10.174;2022-09-19T15:22:25;21.10;63.30
3298;DHT22;1661;53.572;10.174;2022-09-19T15:24:55;20.90;65.00
3298;DHT22;1661;53.572;10.174;2022-09-19T15:27:24;21.00;65.90
3298;DHT22;1661;53.572;10.174;2022-09-19T15:29:51;20.90;65.10
3298;DHT22;1661;53.572;10.174;2022-09-19T15:32:24;20.60;61.40
3298;DHT22;1661;53.572;10.174;2022-09-19T15:34:54;20.40;58.20
3298;DHT22;1661;53.572;10.174;2022-09-19T15:37:23;19.70;61.70
3298;DHT22;1661;53.572;10.174;2022-09-19T15:39:52;19.50;63.00
3298;DHT22;1661;53.572;10.174;2022-09-19T15:42:19;19.30;60.40
3298;DHT22;1661;53.572;10.174;2022-09-19T15:44:47;19.00;63.40
3298;DHT22;1661;53.572;10.174;2022-09-19T15:47:15;18.90;61.50
3298;DHT22;1661;53.572;10.174;2022-09-19T15:49:45;18.60;61.10
3298;DHT22;1661;53.572;10.174;2022-09-19T15:52:17;18.50;63.40
3298;DHT22;1661;53.572;10.174;2022-09-19T15:54:47;18.50;65.60
3298;DHT22;1661;53.572;10.174;2022-09-19T15:57:23;18.60;66.50
3298;DHT22;1661;53.572;10.174;2022-09-19T16:00:02;18.70;65.30
3298;DHT22;1661;53.572;10.174;2022-09-19T16:02:33;18.70;63.00
3298;DHT22;1661;53.572;10.174;2022-09-19T16:05:14;18.60;63.90
3298;DHT22;1661;53.572;10.174;2022-09-19T16:07:46;18.70;64.40
3298;DHT22;1661;53.572;10.174;2022-09-19T16:10:34;18.60;64.20
3298;DHT22;1661;53.572;10.174;2022-09-19T16:13:04;18.70;64.70
3298;DHT22;1661;53.572;10.174;2022-09-19T16:15:35;18.70;65.80
3298;DHT22;1661;53.572;10.174;2022-09-19T16:18:13;18.80;64.20
3298;DHT22;1661;53.572;10.174;2022-09-19T16:20:50;18.80;64.20
3298;DHT22;1661;53.572;10.174;2022-09-19T16:23:20;18.90;66.60
3298;DHT22;1661;53.572;10.174;2022-09-19T16:25:49;18.90;64.90
3298;DHT22;1661;53.572;10.174;2022-09-19T16:28:26;18.80;62.50